sensor_id;sensor_type;location;lat;lon;timestamp;P1;durP1;ratioP1;P2;durP2;ratioP2
16969;SDS011;8601;48.718;8.992;2023-04-03T00:02:08;5.63;;;3.50;;
16969;SDS011;8601;48.718;8.992;2023-04-03T00:04:35;3.50;;;3.20;;
16969;SDS011;8601;48.718;8.992;2023-04-03T00:07:03;3.67;;;3.37;;
16969;SDS011;8601;48.718;8.992;2023-04-03T00:09:31;4.33;;;3.20;;
16969;SDS011;8601;48.718;8.992;2023-04-03T00:11:58;5.27;;;3.53;;
16969;SDS011;8601;48.718;8.992;2023-04-03T00:14:25;4.47;;;3.40;;
16969;SDS011;8601;48.718;8.992;2023-04-03T00:16:52;4.30;;;3.50;;
16969;SDS011;8601;48.718;8.992;2023-04-03T00:19:19;5.43;;;3.50;;
16969;SDS011;8601;48.718;8.992;2023-04-03T00:21:46;3.87;;;3.50;;
16969;SDS011;8601;48.718;8.992;2023-04-03T00:24:15;4.10;;;3.80;;
16969;SDS011;8601;48.718;8.992;2023-04-03T00:26:42;3.17;;;2.87;;
16969;SDS011;8601;48.718;8.992;2023-04-03T00:29:10;4.27;;;3.40;;
16969;SDS011;8601;48.718;8.992;2023-04-03T00:31:37;3.73;;;3.37;;
16969;SDS011;8601;48.718;8.992;2023-04-03T00:34:05;3.93;;;3.63;;
16969;SDS011;8601;48.718;8.992;2023-04-03T00:36:34;5.57;;;3.87;;
16969;SDS011;8601;48.718;8.992;2023-04-03T00:39:00;3.87;;;3.50;;
16969;SDS011;8601;48.718;8.992;2023-04-03T00:41:29;3.67;;;3.37;;
16969;SDS011;8601;48.718;8.992;2023-04-03T00:43:56;4.10;;;3.70;;
16969;SDS011;8601;48.718;8.992;2023-04-03T00:46:24;5.33;;;3.87;;
16969;SDS011;8601;48.718;8.992;2023-04-03T00:48:51;4.60;;;4.20;;
16969;SDS011;8601;48.718;8.992;2023-04-03T00:51:19;3.87;;;3.57;;
16969;SDS011;8601;48.718;8.992;2023-04-03T00:53:50;4.50;;;3.60;;
16969;SDS011;8601;48.718;8.992;2023-04-03T00:56:21;4.23;;;3.43;;
16969;SDS011;8601;48.718;8.992;2023-04-03T00:58:53;3.70;;;3.40;;
16969;SDS011;8601;48.718;8.992;2023-04-03T01:01:24;4.13;;;3.83;;
16969;SDS011;8601;48.718;8.992;2023-04-03T01:03:53;4.10;;;3.70;;
16969;SDS011;8601;48.718;8.992;2023-04-03T01:06:21;4.83;;;3.83;;
16969;SDS011;8601;48.718;8.992;2023-04-03T01:08:52;4.60;;;3.87;;
16969;SDS011;8601;48.718;8.992;2023-04-03T01:11:21;4.00;;;3.60;;
16969;SDS011;8601;48.718;8.992;2023-04-03T01:13:48;4.93;;;3.93;;
16969;SDS011;8601;48.718;8.992;2023-04-03T01:16:16;4.00;;;3.60;;
16969;SDS011;8601;48.718;8.992;2023-04-03T01:18:44;4.40;;;4.00;;
16969;SDS011;8601;48.718;8.992;2023-04-03T01:24:15;6.20;;;3.80;;
16969;SDS011;8601;48.718;8.992;2023-04-03T01:26:50;3.83;;;3.33;;
16969;SDS011;8601;48.718;8.992;2023-04-03T01:29:17;3.77;;;3.30;;
16969;SDS011;8601;48.718;8.992;2023-04-03T01:31:52;3.93;;;3.57;;
16969;SDS011;8601;48.718;8.992;2023-04-03T01:34:20;3.90;;;3.50;;
16969;SDS011;8601;48.718;8.992;2023-04-03T01:36:47;4.10;;;3.70;;
16969;SDS011;8601;48.718;8.992;2023-04-03T01:39:14;4.27;;;3.87;;
16969;SDS011;8601;48.718;8.992;2023-04-03T01:41:41;3.80;;;3.50;;
16969;SDS011;8601;48.718;8.992;2023-04-03T01:44:08;3.90;;;3.47;;
16969;SDS011;8601;48.718;8.992;2023-04-03T01:46:35;4.53;;;3.53;;
16969;SDS011;8601;48.718;8.992;2023-04-03T01:49:04;4.20;;;3.50;;
16969;SDS011;8601;48.718;8.992;2023-04-03T01:51:31;4.43;;;3.33;;
16969;SDS011;8601;48.718;8.992;2023-04-03T01:53:58;3.80;;;3.23;;
16969;SDS011;8601;48.718;8.992;2023-04-03T01:56:25;4.17;;;3.77;;
16969;SDS011;8601;48.718;8.992;2023-04-03T01:58:52;4.13;;;3.60;;
16969;SDS011;8601;48.718;8.992;2023-04-03T02:01:19;4.10;;;3.60;;
16969;SDS011;8601;48.718;8.992;2023-04-03T02:03:46;4.23;;;3.50;;
16969;SDS011;8601;48.718;8.992;2023-04-03T02:06:14;4.13;;;3.73;;
16969;SDS011;8601;48.718;8.992;2023-04-03T02:08:41;4.37;;;4.00;;
16969;SDS011;8601;48.718;8.992;2023-04-03T02:11:09;4.53;;;3.57;;
16969;SDS011;8601;48.718;8.992;2023-04-03T02:13:37;3.37;;;3.17;;
16969;SDS011;8601;48.718;8.992;2023-04-03T02:16:07;3.87;;;3.50;;
16969;SDS011;8601;48.718;8.992;2023-04-03T02:18:35;3.67;;;3.37;;
16969;SDS011;8601;48.718;8.992;2023-04-03T02:21:02;3.80;;;3.40;;
16969;SDS011;8601;48.718;8.992;2023-04-03T02:23:30;3.83;;;3.43;;
16969;SDS011;8601;48.718;8.992;2023-04-03T02:26:04;3.60;;;3.30;;
16969;SDS011;8601;48.718;8.992;2023-04-03T02:28:32;3.93;;;3.60;;
16969;SDS011;8601;48.718;8.992;2023-04-03T02:30:59;3.60;;;3.30;;
16969;SDS011;8601;48.718;8.992;2023-04-03T02:33:26;3.57;;;3.27;;
16969;SDS011;8601;48.718;8.992;2023-04-03T02:35:53;3.77;;;3.43;;
16969;SDS011;8601;48.718;8.992;2023-04-03T02:38:21;4.30;;;3.60;;
16969;SDS011;8601;48.718;8.992;2023-04-03T02:40:49;3.90;;;3.10;;
16969;SDS011;8601;48.718;8.992;2023-04-03T02:43:17;3.60;;;3.30;;
16969;SDS011;8601;48.718;8.992;2023-04-03T02:45:44;4.07;;;3.57;;
16969;SDS011;8601;48.718;8.992;2023-04-03T02:48:11;4.33;;;3.90;;
16969;SDS011;8601;48.718;8.992;2023-04-03T02:50:39;4.10;;;3.80;;
16969;SDS011;8601;48.718;8.992;2023-04-03T02:53:06;5.33;;;3.73;;
16969;SDS011;8601;48.718;8.992;2023-04-03T02:55:33;4.37;;;3.60;;
16969;SDS011;8601;48.718;8.992;2023-04-03T02:58:01;4.33;;;3.97;;
16969;SDS011;8601;48.718;8.992;2023-04-03T03:00:29;3.73;;;3.37;;
16969;SDS011;8601;48.718;8.992;2023-04-03T03:02:56;3.63;;;3.33;;
16969;SDS011;8601;48.718;8.992;2023-04-03T03:05:23;3.33;;;3.03;;
16969;SDS011;8601;48.718;8.992;2023-04-03T03:07:50;4.40;;;4.00;;
16969;SDS011;8601;48.718;8.992;2023-04-03T03:10:17;4.83;;;3.60;;
16969;SDS011;8601;48.718;8.992;2023-04-03T03:12:44;3.80;;;3.40;;
16969;SDS011;8601;48.718;8.992;2023-04-03T03:15:13;4.43;;;3.37;;
16969;SDS011;8601;48.718;8.992;2023-04-03T03:17:40;4.57;;;3.90;;
16969;SDS011;8601;48.718;8.992;2023-04-03T03:20:07;7.07;;;4.23;;
16969;SDS011;8601;48.718;8.992;2023-04-03T03:22:35;4.27;;;3.83;;
16969;SDS011;8601;48.718;8.992;2023-04-03T03:25:02;4.10;;;3.40;;
16969;SDS011;8601;48.718;8.992;2023-04-03T03:27:29;5.27;;;3.70;;
16969;SDS011;8601;48.718;8.992;2023-04-03T03:29:56;4.00;;;3.53;;
16969;SDS011;8601;48.718;8.992;2023-04-03T03:32:25;4.53;;;3.73;;
16969;SDS011;8601;48.718;8.992;2023-04-03T03:34:52;4.07;;;3.70;;
16969;SDS011;8601;48.718;8.992;2023-04-03T03:37:19;5.87;;;3.90;;
16969;SDS011;8601;48.718;8.992;2023-04-03T03:39:45;5.50;;;3.77;;
16969;SDS011;8601;48.718;8.992;2023-04-03T03:42:12;3.93;;;3.37;;
16969;SDS011;8601;48.718;8.992;2023-04-03T03:44:39;3.40;;;3.10;;
16969;SDS011;8601;48.718;8.992;2023-04-03T03:47:07;4.03;;;3.60;;
16969;SDS011;8601;48.718;8.992;2023-04-03T03:49:37;4.10;;;3.50;;
16969;SDS011;8601;48.718;8.992;2023-04-03T03:52:04;4.07;;;3.70;;
16969;SDS011;8601;48.718;8.992;2023-04-03T03:54:31;3.83;;;3.37;;
16969;SDS011;8601;48.718;8.992;2023-04-03T03:56:57;3.90;;;3.60;;
16969;SDS011;8601;48.718;8.992;2023-04-03T03:59:26;3.50;;;3.20;;
16969;SDS011;8601;48.718;8.992;2023-04-03T04:01:52;5.67;;;3.70;;
16969;SDS011;8601;48.718;8.992;2023-04-03T04:04:19;3.87;;;3.57;;
16969;SDS011;8601;48.718;8.992;2023-04-03T04:06:48;4.27;;;3.87;;
16969;SDS011;8601;48.718;8.992;2023-04-03T04:09:15;4.13;;;3.53;;
16969;SDS011;8601;48.718;8.992;2023-04-03T04:11:42;3.50;;;3.30;;
16969;SDS011;8601;48.718;8.992;2023-04-03T04:14:10;4.27;;;3.87;;
16969;SDS011;8601;48.718;8.992;2023-04-03T04:16:37;3.70;;;3.40;;
16969;SDS011;8601;48.718;8.992;2023-04-03T04:19:04;4.23;;;3.43;;
16969;SDS011;8601;48.718;8.992;2023-04-03T04:21:31;4.63;;;3.80;;
16969;SDS011;8601;48.718;8.992;2023-04-03T04:23:59;4.60;;;3.70;;
16969;SDS011;8601;48.718;8.992;2023-04-03T04:26:26;4.03;;;3.60;;
16969;SDS011;8601;48.718;8.992;2023-04-03T04:28:54;4.37;;;3.33;;
16969;SDS011;8601;48.718;8.992;2023-04-03T04:31:21;4.37;;;3.17;;
16969;SDS011;8601;48.718;8.992;2023-04-03T04:33:48;3.80;;;3.50;;
16969;SDS011;8601;48.718;8.992;2023-04-03T04:36:16;4.07;;;3.60;;
16969;SDS011;8601;48.718;8.992;2023-04-03T04:38:42;5.30;;;3.53;;
16969;SDS011;8601;48.718;8.992;2023-04-03T04:41:11;3.77;;;3.40;;
16969;SDS011;8601;48.718;8.992;2023-04-03T04:43:38;4.00;;;3.60;;
16969;SDS011;8601;48.718;8.992;2023-04-03T04:46:06;3.57;;;3.17;;
16969;SDS011;8601;48.718;8.992;2023-04-03T04:48:35;3.97;;;3.70;;
16969;SDS011;8601;48.718;8.992;2023-04-03T04:51:02;3.73;;;3.43;;
16969;SDS011;8601;48.718;8.992;2023-04-03T04:53:29;3.73;;;3.43;;
16969;SDS011;8601;48.718;8.992;2023-04-03T04:55:56;3.70;;;3.40;;
16969;SDS011;8601;48.718;8.992;2023-04-03T04:58:25;4.20;;;3.80;;
16969;SDS011;8601;48.718;8.992;2023-04-03T05:00:57;3.73;;;3.43;;
16969;SDS011;8601;48.718;8.992;2023-04-03T05:03:25;3.70;;;3.20;;
16969;SDS011;8601;48.718;8.992;2023-04-03T05:05:52;3.50;;;3.20;;
16969;SDS011;8601;48.718;8.992;2023-04-03T05:08:19;5.20;;;3.50;;
16969;SDS011;8601;48.718;8.992;2023-04-03T05:10:46;3.80;;;3.50;;
16969;SDS011;8601;48.718;8.992;2023-04-03T05:13:14;4.03;;;3.23;;
16969;SDS011;8601;48.718;8.992;2023-04-03T05:15:42;4.27;;;3.73;;
16969;SDS011;8601;48.718;8.992;2023-04-03T05:18:09;4.10;;;3.80;;
16969;SDS011;8601;48.718;8.992;2023-04-03T05:20:37;5.33;;;3.27;;
16969;SDS011;8601;48.718;8.992;2023-04-03T05:23:04;4.30;;;3.90;;
16969;SDS011;8601;48.718;8.992;2023-04-03T05:25:31;3.97;;;3.63;;
16969;SDS011;8601;48.718;8.992;2023-04-03T05:27:58;4.00;;;3.53;;
16969;SDS011;8601;48.718;8.992;2023-04-03T05:30:25;4.27;;;3.50;;
16969;SDS011;8601;48.718;8.992;2023-04-03T05:32:54;3.87;;;3.47;;
16969;SDS011;8601;48.718;8.992;2023-04-03T05:35:21;3.80;;;3.10;;
16969;SDS011;8601;48.718;8.992;2023-04-03T05:37:48;4.30;;;3.90;;
16969;SDS011;8601;48.718;8.992;2023-04-03T05:40:15;3.40;;;3.10;;
16969;SDS011;8601;48.718;8.992;2023-04-03T05:42:43;3.93;;;3.50;;
16969;SDS011;8601;48.718;8.992;2023-04-03T05:45:10;3.63;;;3.33;;
16969;SDS011;8601;48.718;8.992;2023-04-03T05:47:37;3.53;;;3.23;;
16969;SDS011;8601;48.718;8.992;2023-04-03T05:50:06;2.80;;;2.60;;
16969;SDS011;8601;48.718;8.992;2023-04-03T05:52:35;3.37;;;3.07;;
16969;SDS011;8601;48.718;8.992;2023-04-03T05:55:04;4.27;;;3.33;;
16969;SDS011;8601;48.718;8.992;2023-04-03T05:57:32;3.57;;;3.13;;
16969;SDS011;8601;48.718;8.992;2023-04-03T05:59:59;3.53;;;3.23;;
16969;SDS011;8601;48.718;8.992;2023-04-03T06:02:26;3.73;;;3.00;;
16969;SDS011;8601;48.718;8.992;2023-04-03T06:04:53;4.60;;;3.03;;
16969;SDS011;8601;48.718;8.992;2023-04-03T06:07:23;4.00;;;3.13;;
16969;SDS011;8601;48.718;8.992;2023-04-03T06:09:54;3.87;;;3.57;;
16969;SDS011;8601;48.718;8.992;2023-04-03T06:12:21;4.37;;;2.77;;
16969;SDS011;8601;48.718;8.992;2023-04-03T06:14:48;3.50;;;3.20;;
16969;SDS011;8601;48.718;8.992;2023-04-03T06:17:16;3.47;;;2.87;;
16969;SDS011;8601;48.718;8.992;2023-04-03T06:19:43;3.23;;;2.93;;
16969;SDS011;8601;48.718;8.992;2023-04-03T06:22:11;3.60;;;2.77;;
16969;SDS011;8601;48.718;8.992;2023-04-03T06:24:40;3.27;;;3.07;;
16969;SDS011;8601;48.718;8.992;2023-04-03T06:27:09;3.10;;;2.83;;
16969;SDS011;8601;48.718;8.992;2023-04-03T06:29:37;3.70;;;3.37;;
16969;SDS011;8601;48.718;8.992;2023-04-03T06:32:05;3.37;;;3.07;;
16969;SDS011;8601;48.718;8.992;2023-04-03T06:34:32;3.23;;;2.93;;
16969;SDS011;8601;48.718;8.992;2023-04-03T06:36:58;4.77;;;3.50;;
16969;SDS011;8601;48.718;8.992;2023-04-03T06:39:25;4.17;;;3.77;;
16969;SDS011;8601;48.718;8.992;2023-04-03T06:41:54;4.10;;;3.70;;
16969;SDS011;8601;48.718;8.992;2023-04-03T06:44:21;3.67;;;3.27;;
16969;SDS011;8601;48.718;8.992;2023-04-03T06:46:47;4.43;;;3.10;;
16969;SDS011;8601;48.718;8.992;2023-04-03T06:49:14;3.70;;;3.37;;
16969;SDS011;8601;48.718;8.992;2023-04-03T06:51:41;3.23;;;2.97;;
16969;SDS011;8601;48.718;8.992;2023-04-03T06:54:09;3.33;;;3.03;;
16969;SDS011;8601;48.718;8.992;2023-04-03T06:56:35;4.40;;;3.40;;
16969;SDS011;8601;48.718;8.992;2023-04-03T06:59:04;5.30;;;3.63;;
16969;SDS011;8601;48.718;8.992;2023-04-03T07:01:32;4.13;;;3.40;;
16969;SDS011;8601;48.718;8.992;2023-04-03T07:03:58;3.07;;;2.63;;
16969;SDS011;8601;48.718;8.992;2023-04-03T07:06:26;3.43;;;2.90;;
16969;SDS011;8601;48.718;8.992;2023-04-03T07:08:53;3.17;;;2.87;;
16969;SDS011;8601;48.718;8.992;2023-04-03T07:11:21;4.20;;;2.83;;
16969;SDS011;8601;48.718;8.992;2023-04-03T07:13:48;9.37;;;5.90;;
16969;SDS011;8601;48.718;8.992;2023-04-03T07:16:16;3.70;;;3.20;;
16969;SDS011;8601;48.718;8.992;2023-04-03T07:18:43;2.97;;;2.60;;
16969;SDS011;8601;48.718;8.992;2023-04-03T07:21:10;3.80;;;3.50;;
16969;SDS011;8601;48.718;8.992;2023-04-03T07:23:37;2.83;;;2.57;;
16969;SDS011;8601;48.718;8.992;2023-04-03T07:26:05;3.27;;;2.77;;
16969;SDS011;8601;48.718;8.992;2023-04-03T07:28:33;3.03;;;2.80;;
16969;SDS011;8601;48.718;8.992;2023-04-03T07:31:02;3.90;;;3.10;;
16969;SDS011;8601;48.718;8.992;2023-04-03T07:33:32;2.90;;;2.67;;
16969;SDS011;8601;48.718;8.992;2023-04-03T07:36:01;4.53;;;3.03;;
16969;SDS011;8601;48.718;8.992;2023-04-03T07:38:28;3.53;;;2.67;;
16969;SDS011;8601;48.718;8.992;2023-04-03T07:40:55;5.47;;;3.20;;
16969;SDS011;8601;48.718;8.992;2023-04-03T07:43:23;3.10;;;2.80;;
16969;SDS011;8601;48.718;8.992;2023-04-03T07:45:51;2.90;;;2.70;;
16969;SDS011;8601;48.718;8.992;2023-04-03T07:48:19;3.23;;;2.87;;
16969;SDS011;8601;48.718;8.992;2023-04-03T07:50:48;3.57;;;3.13;;
16969;SDS011;8601;48.718;8.992;2023-04-03T07:53:16;3.40;;;3.10;;
16969;SDS011;8601;48.718;8.992;2023-04-03T07:55:45;3.73;;;2.93;;
16969;SDS011;8601;48.718;8.992;2023-04-03T07:58:14;4.07;;;2.97;;
16969;SDS011;8601;48.718;8.992;2023-04-03T08:00:42;3.80;;;3.17;;
16969;SDS011;8601;48.718;8.992;2023-04-03T08:03:10;3.43;;;3.13;;
16969;SDS011;8601;48.718;8.992;2023-04-03T08:05:38;4.10;;;3.07;;
16969;SDS011;8601;48.718;8.992;2023-04-03T08:08:08;4.53;;;3.00;;
16969;SDS011;8601;48.718;8.992;2023-04-03T08:10:36;5.73;;;3.50;;
16969;SDS011;8601;48.718;8.992;2023-04-03T08:13:03;5.13;;;3.00;;
16969;SDS011;8601;48.718;8.992;2023-04-03T08:15:30;5.70;;;3.30;;
16969;SDS011;8601;48.718;8.992;2023-04-03T08:17:57;4.37;;;3.07;;
16969;SDS011;8601;48.718;8.992;2023-04-03T08:20:24;3.57;;;2.90;;
16969;SDS011;8601;48.718;8.992;2023-04-03T08:22:51;2.87;;;2.53;;
16969;SDS011;8601;48.718;8.992;2023-04-03T08:25:20;4.97;;;3.30;;
16969;SDS011;8601;48.718;8.992;2023-04-03T08:27:48;4.47;;;3.20;;
16969;SDS011;8601;48.718;8.992;2023-04-03T08:30:14;5.03;;;3.10;;
16969;SDS011;8601;48.718;8.992;2023-04-03T08:32:43;3.17;;;2.87;;
16969;SDS011;8601;48.718;8.992;2023-04-03T08:35:10;4.00;;;2.97;;
16969;SDS011;8601;48.718;8.992;2023-04-03T08:37:37;3.87;;;3.50;;
16969;SDS011;8601;48.718;8.992;2023-04-03T08:40:06;3.57;;;3.27;;
16969;SDS011;8601;48.718;8.992;2023-04-03T08:42:39;6.40;;;3.37;;
16969;SDS011;8601;48.718;8.992;2023-04-03T08:45:15;3.40;;;3.10;;
16969;SDS011;8601;48.718;8.992;2023-04-03T08:47:48;3.87;;;2.87;;
16969;SDS011;8601;48.718;8.992;2023-04-03T08:50:19;3.60;;;3.20;;
16969;SDS011;8601;48.718;8.992;2023-04-03T08:52:50;3.30;;;3.00;;
16969;SDS011;8601;48.718;8.992;2023-04-03T08:55:22;3.70;;;2.73;;
16969;SDS011;8601;48.718;8.992;2023-04-03T08:57:57;3.23;;;2.93;;
16969;SDS011;8601;48.718;8.992;2023-04-03T09:00:28;3.63;;;3.00;;
16969;SDS011;8601;48.718;8.992;2023-04-03T09:02:59;3.73;;;2.93;;
16969;SDS011;8601;48.718;8.992;2023-04-03T09:05:29;3.70;;;3.00;;
16969;SDS011;8601;48.718;8.992;2023-04-03T09:08:04;2.70;;;2.50;;
16969;SDS011;8601;48.718;8.992;2023-04-03T09:10:38;4.07;;;3.00;;
16969;SDS011;8601;48.718;8.992;2023-04-03T09:13:09;4.03;;;2.90;;
16969;SDS011;8601;48.718;8.992;2023-04-03T09:15:45;3.57;;;2.83;;
16969;SDS011;8601;48.718;8.992;2023-04-03T09:18:13;4.70;;;2.87;;
16969;SDS011;8601;48.718;8.992;2023-04-03T09:20:46;2.60;;;2.40;;
16969;SDS011;8601;48.718;8.992;2023-04-03T09:23:22;4.03;;;2.80;;
16969;SDS011;8601;48.718;8.992;2023-04-03T09:25:56;5.33;;;3.50;;
16969;SDS011;8601;48.718;8.992;2023-04-03T09:28:30;4.83;;;2.90;;
16969;SDS011;8601;48.718;8.992;2023-04-03T09:31:00;4.47;;;2.80;;
16969;SDS011;8601;48.718;8.992;2023-04-03T09:33:26;4.47;;;2.70;;
16969;SDS011;8601;48.718;8.992;2023-04-03T09:35:55;3.93;;;3.10;;
16969;SDS011;8601;48.718;8.992;2023-04-03T09:38:22;3.07;;;2.80;;
16969;SDS011;8601;48.718;8.992;2023-04-03T09:40:51;3.97;;;2.93;;
16969;SDS011;8601;48.718;8.992;2023-04-03T09:43:32;3.80;;;2.90;;
16969;SDS011;8601;48.718;8.992;2023-04-03T09:48:50;3.13;;;2.80;;
16969;SDS011;8601;48.718;8.992;2023-04-03T09:51:18;4.17;;;3.40;;
16969;SDS011;8601;48.718;8.992;2023-04-03T09:53:46;4.13;;;3.17;;
16969;SDS011;8601;48.718;8.992;2023-04-03T09:56:19;3.10;;;2.80;;
16969;SDS011;8601;48.718;8.992;2023-04-03T09:58:50;4.83;;;2.80;;
16969;SDS011;8601;48.718;8.992;2023-04-03T10:01:32;7.37;;;3.50;;
16969;SDS011;8601;48.718;8.992;2023-04-03T10:04:05;3.73;;;2.87;;
16969;SDS011;8601;48.718;8.992;2023-04-03T10:06:35;4.20;;;2.90;;
16969;SDS011;8601;48.718;8.992;2023-04-03T10:09:06;3.00;;;2.80;;
16969;SDS011;8601;48.718;8.992;2023-04-03T10:11:50;3.27;;;2.43;;
16969;SDS011;8601;48.718;8.992;2023-04-03T10:14:25;3.23;;;2.70;;
16969;SDS011;8601;48.718;8.992;2023-04-03T10:16:55;2.83;;;2.40;;
16969;SDS011;8601;48.718;8.992;2023-04-03T10:19:34;2.90;;;2.60;;
16969;SDS011;8601;48.718;8.992;2023-04-03T10:22:08;2.83;;;2.63;;
16969;SDS011;8601;48.718;8.992;2023-04-03T10:24:45;2.90;;;2.63;;
16969;SDS011;8601;48.718;8.992;2023-04-03T10:27:21;3.47;;;2.90;;
16969;SDS011;8601;48.718;8.992;2023-04-03T10:29:59;3.37;;;2.60;;
16969;SDS011;8601;48.718;8.992;2023-04-03T10:32:41;2.60;;;2.40;;
16969;SDS011;8601;48.718;8.992;2023-04-03T10:35:20;3.90;;;2.93;;
16969;SDS011;8601;48.718;8.992;2023-04-03T10:38:01;4.30;;;2.83;;
16969;SDS011;8601;48.718;8.992;2023-04-03T10:40:34;2.90;;;2.60;;
16969;SDS011;8601;48.718;8.992;2023-04-03T10:43:14;3.63;;;2.97;;
16969;SDS011;8601;48.718;8.992;2023-04-03T10:45:53;4.97;;;2.60;;
16969;SDS011;8601;48.718;8.992;2023-04-03T10:48:31;3.33;;;2.70;;
16969;SDS011;8601;48.718;8.992;2023-04-03T10:51:07;3.03;;;2.30;;
16969;SDS011;8601;48.718;8.992;2023-04-03T10:53:44;3.47;;;2.63;;
16969;SDS011;8601;48.718;8.992;2023-04-03T10:56:17;4.53;;;2.80;;
16969;SDS011;8601;48.718;8.992;2023-04-03T10:58:49;3.07;;;2.63;;
16969;SDS011;8601;48.718;8.992;2023-04-03T11:01:22;2.73;;;2.50;;
16969;SDS011;8601;48.718;8.992;2023-04-03T11:03:54;3.13;;;2.70;;
16969;SDS011;8601;48.718;8.992;2023-04-03T11:06:25;2.73;;;2.10;;
16969;SDS011;8601;48.718;8.992;2023-04-03T11:08:59;3.77;;;2.27;;
16969;SDS011;8601;48.718;8.992;2023-04-03T11:11:32;3.83;;;2.13;;
16969;SDS011;8601;48.718;8.992;2023-04-03T11:14:02;2.73;;;2.53;;
16969;SDS011;8601;48.718;8.992;2023-04-03T11:16:38;2.57;;;2.37;;
16969;SDS011;8601;48.718;8.992;2023-04-03T11:19:10;2.93;;;2.30;;
16969;SDS011;8601;48.718;8.992;2023-04-03T11:21:47;2.80;;;2.50;;
16969;SDS011;8601;48.718;8.992;2023-04-03T11:24:22;3.27;;;2.93;;
16969;SDS011;8601;48.718;8.992;2023-04-03T11:26:51;3.33;;;2.33;;
16969;SDS011;8601;48.718;8.992;2023-04-03T11:29:20;3.43;;;2.60;;
16969;SDS011;8601;48.718;8.992;2023-04-03T11:34:45;3.90;;;2.43;;
16969;SDS011;8601;48.718;8.992;2023-04-03T11:37:16;2.97;;;2.67;;
16969;SDS011;8601;48.718;8.992;2023-04-03T11:39:56;3.17;;;2.30;;
16969;SDS011;8601;48.718;8.992;2023-04-03T11:42:25;2.63;;;2.37;;
16969;SDS011;8601;48.718;8.992;2023-04-03T11:45:17;4.10;;;2.40;;
16969;SDS011;8601;48.718;8.992;2023-04-03T11:47:57;3.80;;;2.30;;
16969;SDS011;8601;48.718;8.992;2023-04-03T11:50:38;2.47;;;2.13;;
16969;SDS011;8601;48.718;8.992;2023-04-03T11:53:26;2.80;;;2.47;;
16969;SDS011;8601;48.718;8.992;2023-04-03T11:55:57;3.70;;;2.40;;
16969;SDS011;8601;48.718;8.992;2023-04-03T11:58:39;3.50;;;3.20;;
16969;SDS011;8601;48.718;8.992;2023-04-03T12:01:06;3.27;;;2.40;;
16969;SDS011;8601;48.718;8.992;2023-04-03T12:12:35;3.00;;;2.40;;
16969;SDS011;8601;48.718;8.992;2023-04-03T12:17:51;2.43;;;2.07;;
16969;SDS011;8601;48.718;8.992;2023-04-03T12:23:23;3.40;;;2.27;;
16969;SDS011;8601;48.718;8.992;2023-04-03T12:26:05;2.97;;;2.10;;
16969;SDS011;8601;48.718;8.992;2023-04-03T12:28:47;2.50;;;2.30;;
16969;SDS011;8601;48.718;8.992;2023-04-03T12:31:17;3.07;;;2.00;;
16969;SDS011;8601;48.718;8.992;2023-04-03T12:36:47;5.27;;;2.40;;
16969;SDS011;8601;48.718;8.992;2023-04-03T12:39:41;3.30;;;2.20;;
16969;SDS011;8601;48.718;8.992;2023-04-03T12:45:26;3.87;;;2.27;;
16969;SDS011;8601;48.718;8.992;2023-04-03T12:47:54;3.13;;;2.27;;
16969;SDS011;8601;48.718;8.992;2023-04-03T12:50:22;2.70;;;2.17;;
16969;SDS011;8601;48.718;8.992;2023-04-03T12:52:54;2.93;;;2.20;;
16969;SDS011;8601;48.718;8.992;2023-04-03T12:55:25;2.20;;;2.00;;
16969;SDS011;8601;48.718;8.992;2023-04-03T12:57:52;2.53;;;2.30;;
16969;SDS011;8601;48.718;8.992;2023-04-03T13:00:27;3.63;;;2.77;;
16969;SDS011;8601;48.718;8.992;2023-04-03T13:02:57;3.27;;;2.20;;
16969;SDS011;8601;48.718;8.992;2023-04-03T13:05:25;2.60;;;2.20;;
16969;SDS011;8601;48.718;8.992;2023-04-03T13:07:56;3.37;;;2.53;;
16969;SDS011;8601;48.718;8.992;2023-04-03T13:10:26;6.00;;;2.30;;
16969;SDS011;8601;48.718;8.992;2023-04-03T13:12:55;2.50;;;2.30;;
16969;SDS011;8601;48.718;8.992;2023-04-03T13:15:24;2.63;;;2.43;;
16969;SDS011;8601;48.718;8.992;2023-04-03T13:17:53;2.60;;;2.23;;
16969;SDS011;8601;48.718;8.992;2023-04-03T13:20:21;3.03;;;2.20;;
16969;SDS011;8601;48.718;8.992;2023-04-03T13:22:52;3.80;;;2.23;;
16969;SDS011;8601;48.718;8.992;2023-04-03T13:25:26;3.47;;;2.00;;
16969;SDS011;8601;48.718;8.992;2023-04-03T13:27:55;4.30;;;2.30;;
16969;SDS011;8601;48.718;8.992;2023-04-03T13:30:27;3.90;;;2.67;;
16969;SDS011;8601;48.718;8.992;2023-04-03T13:32:56;2.50;;;2.30;;
16969;SDS011;8601;48.718;8.992;2023-04-03T13:35:32;4.03;;;2.20;;
16969;SDS011;8601;48.718;8.992;2023-04-03T13:38:04;3.23;;;2.30;;
16969;SDS011;8601;48.718;8.992;2023-04-03T13:40:33;3.27;;;2.20;;
16969;SDS011;8601;48.718;8.992;2023-04-03T13:43:16;3.13;;;2.30;;
16969;SDS011;8601;48.718;8.992;2023-04-03T13:45:53;2.60;;;2.27;;
16969;SDS011;8601;48.718;8.992;2023-04-03T13:48:35;2.53;;;2.20;;
16969;SDS011;8601;48.718;8.992;2023-04-03T13:51:04;2.60;;;2.40;;
16969;SDS011;8601;48.718;8.992;2023-04-03T13:53:34;3.13;;;2.07;;
16969;SDS011;8601;48.718;8.992;2023-04-03T13:56:13;3.13;;;2.20;;
16969;SDS011;8601;48.718;8.992;2023-04-03T13:58:52;3.60;;;1.80;;
16969;SDS011;8601;48.718;8.992;2023-04-03T14:01:47;4.03;;;2.37;;
16969;SDS011;8601;48.718;8.992;2023-04-03T14:04:17;2.83;;;2.33;;
16969;SDS011;8601;48.718;8.992;2023-04-03T14:06:46;2.63;;;2.37;;
16969;SDS011;8601;48.718;8.992;2023-04-03T14:09:16;3.07;;;2.77;;
16969;SDS011;8601;48.718;8.992;2023-04-03T14:11:45;2.70;;;1.90;;
16969;SDS011;8601;48.718;8.992;2023-04-03T14:14:14;2.40;;;2.20;;
16969;SDS011;8601;48.718;8.992;2023-04-03T14:16:44;4.67;;;2.30;;
16969;SDS011;8601;48.718;8.992;2023-04-03T14:19:19;2.63;;;2.13;;
16969;SDS011;8601;48.718;8.992;2023-04-03T14:21:47;2.90;;;2.60;;
16969;SDS011;8601;48.718;8.992;2023-04-03T14:24:17;2.73;;;2.10;;
16969;SDS011;8601;48.718;8.992;2023-04-03T14:26:46;3.77;;;2.10;;
16969;SDS011;8601;48.718;8.992;2023-04-03T14:29:14;3.77;;;2.40;;
16969;SDS011;8601;48.718;8.992;2023-04-03T14:31:42;5.47;;;2.77;;
16969;SDS011;8601;48.718;8.992;2023-04-03T14:34:12;4.07;;;2.10;;
16969;SDS011;8601;48.718;8.992;2023-04-03T14:36:40;2.77;;;2.20;;
16969;SDS011;8601;48.718;8.992;2023-04-03T14:39:11;3.83;;;2.23;;
16969;SDS011;8601;48.718;8.992;2023-04-03T14:44:59;3.63;;;2.47;;
16969;SDS011;8601;48.718;8.992;2023-04-03T14:51:08;4.03;;;2.50;;
16969;SDS011;8601;48.718;8.992;2023-04-03T14:57:29;4.10;;;2.63;;
16969;SDS011;8601;48.718;8.992;2023-04-03T14:59:58;3.50;;;2.30;;
16969;SDS011;8601;48.718;8.992;2023-04-03T15:02:27;2.50;;;2.30;;
16969;SDS011;8601;48.718;8.992;2023-04-03T15:05:11;3.10;;;2.13;;
16969;SDS011;8601;48.718;8.992;2023-04-03T15:11:40;2.73;;;2.10;;
16969;SDS011;8601;48.718;8.992;2023-04-03T15:20:52;3.57;;;2.60;;
16969;SDS011;8601;48.718;8.992;2023-04-03T15:23:19;2.30;;;2.10;;
16969;SDS011;8601;48.718;8.992;2023-04-03T15:25:50;2.43;;;2.23;;
16969;SDS011;8601;48.718;8.992;2023-04-03T15:28:21;2.53;;;2.33;;
16969;SDS011;8601;48.718;8.992;2023-04-03T15:30:51;4.03;;;2.50;;
16969;SDS011;8601;48.718;8.992;2023-04-03T15:33:20;3.73;;;2.60;;
16969;SDS011;8601;48.718;8.992;2023-04-03T15:35:46;3.53;;;2.57;;
16969;SDS011;8601;48.718;8.992;2023-04-03T15:38:13;2.40;;;2.17;;
16969;SDS011;8601;48.718;8.992;2023-04-03T15:40:40;2.60;;;2.40;;
16969;SDS011;8601;48.718;8.992;2023-04-03T15:43:08;3.37;;;2.47;;
16969;SDS011;8601;48.718;8.992;2023-04-03T15:45:36;2.97;;;2.03;;
16969;SDS011;8601;48.718;8.992;2023-04-03T15:48:04;4.50;;;2.23;;
16969;SDS011;8601;48.718;8.992;2023-04-03T15:50:34;2.73;;;2.33;;
16969;SDS011;8601;48.718;8.992;2023-04-03T15:53:01;3.30;;;2.10;;
16969;SDS011;8601;48.718;8.992;2023-04-03T15:55:29;2.53;;;2.33;;
16969;SDS011;8601;48.718;8.992;2023-04-03T15:57:58;3.17;;;2.03;;
16969;SDS011;8601;48.718;8.992;2023-04-03T16:00:27;3.10;;;2.10;;
16969;SDS011;8601;48.718;8.992;2023-04-03T16:02:56;2.63;;;2.00;;
16969;SDS011;8601;48.718;8.992;2023-04-03T16:05:26;2.63;;;2.40;;
16969;SDS011;8601;48.718;8.992;2023-04-03T16:07:55;2.50;;;2.30;;